Time;durP1;ratioP1;P1;durP2;ratioP2;P2;SDS_P1;SDS_P2;PMS_P1;PMS_P2;Temp;Humidity;BMP_temperature;BMP_pressure;BME280_temperature;BME280_humidity;BME280_pressure;Samples;Min_cycle;Max_cycle;Signal;HPM_P1;HPM_P2
2022/07/25 00:00:26;;;;;;;8.00;7.15;;;;;;;20.93;79.39;99453.59;1702905;82;21591;-70
2022/07/25 00:02:53;;;;;;;8.00;7.28;;;;;;;20.92;79.25;99457.23;1696180;82;21614;-69
2022/07/25 00:05:20;;;;;;;10.50;7.08;;;;;;;20.83;79.32;99456.70;1700335;82;23457;-69
2022/07/25 00:07:49;;;;;;;7.40;6.80;;;;;;;20.80;79.42;99455.66;1698962;83;20967;-70
2022/07/25 00:10:15;;;;;;;7.78;7.08;;;;;;;20.78;79.33;99461.64;1670714;83;21045;-69
2022/07/25 00:12:43;;;;;;;8.00;7.17;;;;;;;20.72;79.43;99459.02;1703404;82;21017;-70
2022/07/25 00:15:11;;;;;;;7.92;6.67;;;;;;;20.69;79.40;99448.59;1721458;81;21557;-69
2022/07/25 00:17:39;;;;;;;7.60;6.33;;;;;;;20.67;79.26;99455.06;1708729;82;21807;-68
2022/07/25 00:20:08;;;;;;;7.22;6.53;;;;;;;20.64;79.24;99449.47;1706396;82;21701;-68
2022/07/25 00:22:35;;;;;;;7.97;7.00;;;;;;;20.60;79.24;99446.72;1716858;82;20994;-69
2022/07/25 00:25:01;;;;;;;8.35;7.10;;;;;;;20.55;79.46;99458.26;1718688;82;21475;-68
2022/07/25 00:27:28;;;;;;;7.47;6.78;;;;;;;20.51;79.53;99462.18;1708302;82;21582;-65
2022/07/25 00:29:56;;;;;;;13.85;7.12;;;;;;;20.46;79.64;99463.09;1708911;82;21833;-69
2022/07/25 00:32:23;;;;;;;12.00;7.03;;;;;;;20.46;79.79;99466.60;1704365;82;21471;-68
2022/07/25 00:34:49;;;;;;;10.10;7.40;;;;;;;20.43;79.66;99464.19;1708399;82;21481;-68
2022/07/25 00:37:16;;;;;;;7.60;6.78;;;;;;;20.45;79.64;99466.73;1712121;82;21522;-69
2022/07/25 00:39:43;;;;;;;8.25;6.83;;;;;;;20.45;79.45;99462.73;1710508;82;21447;-68
2022/07/25 00:42:09;;;;;;;8.63;6.83;;;;;;;20.43;79.28;99463.69;1712104;82;22248;-68
2022/07/25 00:44:36;;;;;;;7.17;6.50;;;;;;;20.39;79.28;99460.94;1650363;85;21528;-68
2022/07/25 00:47:03;;;;;;;8.85;7.45;;;;;;;20.39;79.23;99457.42;1711616;82;21439;-68
2022/07/25 00:49:30;;;;;;;6.65;6.05;;;;;;;20.39;79.22;99458.77;1701554;82;21472;-68
2022/07/25 00:51:57;;;;;;;7.78;7.08;;;;;;;20.39;79.03;99456.92;1700461;82;21583;-68
2022/07/25 00:54:24;;;;;;;8.03;7.10;;;;;;;20.36;78.89;99456.34;1701021;82;21792;-68
2022/07/25 00:56:51;;;;;;;7.72;6.90;;;;;;;20.28;79.01;99456.17;1701338;82;21487;-68
2022/07/25 01:01:49;;;;;;;8.88;6.95;;;;;;;19.32;82.45;99458.80;1779814;78;23137;-67
2022/07/25 01:04:16;;;;;;;7.83;7.10;;;;;;;19.53;82.56;99461.51;1739929;80;21535;-67
2022/07/25 01:06:43;;;;;;;6.95;6.25;;;;;;;19.51;82.64;99461.28;1750066;80;21808;-67
2022/07/25 01:09:10;;;;;;;7.70;6.97;;;;;;;19.49;82.74;99461.41;1746274;80;21432;-66
2022/07/25 01:11:36;;;;;;;7.78;6.92;;;;;;;19.44;82.90;99463.14;1743010;80;21431;-66
2022/07/25 01:14:03;;;;;;;7.13;6.43;;;;;;;19.41;82.94;99464.71;1752890;80;21499;-67
2022/07/25 01:16:30;;;;;;;7.12;6.53;;;;;;;19.43;82.95;99468.59;1756483;80;21635;-67
2022/07/25 01:18:57;;;;;;;7.70;6.93;;;;;;;19.41;82.83;99467.87;1745344;80;21898;-66
2022/07/25 01:21:25;;;;;;;6.58;6.05;;;;;;;19.38;82.81;99466.78;1749277;80;20979;-67
2022/07/25 01:23:51;;;;;;;8.10;6.62;;;;;;;19.36;82.74;99465.56;1752931;80;21425;-67
2022/07/25 01:26:18;;;;;;;8.70;6.20;;;;;;;19.36;82.75;99465.56;1744015;80;21058;-66
2022/07/25 01:28:45;;;;;;;7.35;6.72;;;;;;;19.37;82.65;99461.94;1733186;80;21554;-68
2022/07/25 01:31:12;;;;;;;8.75;7.20;;;;;;;19.37;82.44;99465.11;1743228;79;21506;-67
2022/07/25 01:33:39;;;;;;;7.47;6.78;;;;;;;19.37;82.44;99464.61;1735386;80;21412;-66
2022/07/25 01:36:05;;;;;;;9.30;6.70;;;;;;;19.35;82.23;99463.89;1764856;80;21417;-66
2022/07/25 01:38:32;;;;;;;7.30;6.65;;;;;;;19.30;82.21;99460.75;1756124;79;21553;-66
2022/07/25 01:40:59;;;;;;;8.60;6.83;;;;;;;19.36;82.09;99460.73;1731787;80;20949;-66
2022/07/25 01:43:26;;;;;;;7.20;6.50;;;;;;;19.34;82.02;99462.19;1748568;80;21768;-66
2022/07/25 01:45:52;;;;;;;6.70;5.95;;;;;;;19.33;81.82;99461.00;1749655;80;21449;-66
2022/07/25 01:48:20;;;;;;;6.75;6.17;;;;;;;19.28;81.68;99457.86;1752203;80;21917;-67
2022/07/25 01:50:47;;;;;;;6.83;6.25;;;;;;;19.24;81.78;99460.77;1740261;80;21538;-67
2022/07/25 01:53:13;;;;;;;11.15;6.87;;;;;;;19.24;81.64;99463.92;1749543;80;21549;-67
2022/07/25 01:55:40;;;;;;;9.78;6.58;;;;;;;19.22;81.59;99463.20;1747770;80;21793;-66
2022/07/25 01:58:08;;;;;;;9.90;6.73;;;;;;;19.19;81.72;99465.65;1721767;79;21502;-68
2022/07/25 02:00:35;;;;;;;7.40;6.62;;;;;;;19.20;81.58;99459.33;1663803;82;21417;-67
2022/07/25 02:05:47;;;;;;;8.20;6.28;;;;;;;19.19;81.35;99462.98;1742502;80;21584;-68
2022/07/25 02:08:13;;;;;;;6.65;6.05;;;;;;;19.19;81.24;99470.11;1750100;80;22241;-68
2022/07/25 02:10:40;;;;;;;6.70;6.00;;;;;;;19.16;81.19;99466.38;1729384;80;21481;-69
2022/07/25 02:13:06;;;;;;;6.40;5.90;;;;;;;19.10;81.13;99469.06;1737007;80;21570;-68
2022/07/25 02:15:35;;;;;;;7.20;6.45;;;;;;;19.10;81.15;99457.53;1726479;81;21558;-68
2022/07/25 02:18:02;;;;;;;5.87;5.03;;;;;;;19.08;81.07;99464.34;1736369;80;21543;-67
2022/07/25 02:20:28;;;;;;;6.40;5.80;;;;;;;19.05;81.00;99461.91;1728091;80;21799;-70
2022/07/25 02:22:55;;;;;;;9.20;5.62;;;;;;;18.98;81.25;99467.37;1738024;80;21433;-70
2022/07/25 02:25:21;;;;;;;6.40;5.80;;;;;;;18.97;81.34;99461.20;1722416;81;21592;-71
2022/07/25 02:27:48;;;;;;;8.90;5.97;;;;;;;18.97;81.21;99458.54;1690651;82;21477;-70
2022/07/25 02:30:16;;;;;;;5.92;5.37;;;;;;;18.94;81.25;99463.27;1725711;82;20923;-66
2022/07/25 02:32:43;;;;;;;5.80;5.40;;;;;;;18.91;81.22;99461.70;1722562;80;21513;-67
2022/07/25 02:35:10;;;;;;;7.67;5.42;;;;;;;18.89;81.23;99464.95;1734630;80;21561;-69
2022/07/25 02:37:37;;;;;;;6.00;5.42;;;;;;;18.85;81.25;99464.38;1730366;82;21447;-70
2022/07/25 02:40:05;;;;;;;5.53;5.12;;;;;;;18.81;81.32;99462.91;1729696;80;21561;-70
2022/07/25 02:42:33;;;;;;;5.95;4.85;;;;;;;18.84;81.41;99469.33;1730366;80;21529;-70
2022/07/25 02:45:00;;;;;;;5.28;4.87;;;;;;;18.91;81.31;99474.16;1725769;80;21897;-69
2022/07/25 02:47:27;;;;;;;6.37;5.45;;;;;;;18.90;81.27;99473.81;1754486;80;21441;-71
2022/07/25 02:49:53;;;;;;;7.37;5.62;;;;;;;18.93;80.98;99473.55;1736555;80;21065;-69
2022/07/25 02:52:20;;;;;;;5.33;4.85;;;;;;;18.93;80.73;99473.55;1729895;80;21535;-69
2022/07/25 02:54:47;;;;;;;6.30;5.40;;;;;;;18.91;80.68;99469.70;1729119;80;21443;-70
2022/07/25 02:57:13;;;;;;;5.97;5.17;;;;;;;18.89;80.64;99471.61;1724278;80;21680;-71
2022/07/25 02:59:40;;;;;;;6.45;5.12;;;;;;;18.85;80.61;99470.16;1728526;80;21515;-70
2022/07/25 03:02:07;;;;;;;8.03;5.62;;;;;;;18.88;80.61;99474.42;1691202;81;21579;-70
2022/07/25 03:04:35;;;;;;;7.35;5.05;;;;;;;18.86;80.44;99478.53;1687482;81;21450;-71
2022/07/25 03:07:01;;;;;;;6.90;5.17;;;;;;;18.85;80.41;99479.03;1697898;82;21481;-71
2022/07/25 03:09:30;;;;;;;6.42;5.67;;;;;;;18.85;80.40;99475.49;1690593;81;21012;-71
2022/07/25 03:11:56;;;;;;;7.37;5.65;;;;;;;18.84;80.39;99479.14;1697145;81;21547;-70
2022/07/25 03:14:23;;;;;;;5.25;4.75;;;;;;;18.89;80.10;99474.77;1680905;83;21698;-70
2022/07/25 03:16:50;;;;;;;5.67;5.17;;;;;;;18.90;79.89;99473.31;1690571;81;21438;-70
2022/07/25 03:19:17;;;;;;;6.08;5.15;;;;;;;18.89;79.82;99474.27;1700169;81;21081;-70
2022/07/25 03:21:45;;;;;;;7.42;4.72;;;;;;;18.88;79.75;99468.59;1703756;82;21839;-71
2022/07/25 03:24:11;;;;;;;5.75;4.55;;;;;;;18.88;79.74;99469.09;1692967;82;21558;-72
2022/07/25 03:26:38;;;;;;;6.00;5.00;;;;;;;18.89;79.68;99466.28;1691831;82;21592;-70
2022/07/25 03:29:05;;;;;;;7.63;5.50;;;;;;;18.91;79.54;99466.16;1692327;81;21433;-72
2022/07/25 03:31:33;;;;;;;6.05;5.20;;;;;;;18.97;79.47;99469.69;1688643;81;21508;-72
2022/07/25 03:34:00;;;;;;;5.78;5.25;;;;;;;18.99;79.37;99467.25;1680961;83;22160;-73
2022/07/25 03:36:27;;;;;;;5.47;4.80;;;;;;;19.04;79.53;99467.73;1689838;81;21607;-73
2022/07/25 03:38:55;;;;;;;5.40;4.90;;;;;;;19.11;79.62;99471.23;1698189;81;21580;-72
2022/07/25 03:41:21;;;;;;;6.70;5.05;;;;;;;19.20;79.51;99465.16;1695899;81;21047;-73
2022/07/25 03:43:48;;;;;;;8.93;5.37;;;;;;;19.25;79.37;99462.97;1687916;81;20996;-72
2022/07/25 03:46:15;;;;;;;6.05;4.78;;;;;;;19.30;79.20;99468.75;1688811;81;21764;-71
2022/07/25 03:48:41;;;;;;;6.35;4.50;;;;;;;19.33;79.11;99465.84;1676182;83;21511;-72
2022/07/25 03:51:08;;;;;;;5.25;4.70;;;;;;;19.37;78.79;99465.94;1692029;81;21579;-73
2022/07/25 03:54:00;;;;;;;5.17;4.75;;;;;;;19.40;79.12;99473.70;1683523;81;21454;-72
2022/07/25 03:56:04;;;;;;;5.33;4.37;;;;;;;19.44;79.05;99474.30;1676276;81;21532;-73
2022/07/25 03:58:30;;;;;;;6.42;4.58;;;;;;;19.53;78.87;99472.67;1687264;82;21869;-73
2022/07/25 04:00:57;;;;;;;5.00;4.42;;;;;;;19.60;78.71;99477.86;1700959;80;21496;-72
2022/07/25 04:03:24;;;;;;;7.53;4.60;;;;;;;19.63;78.20;99475.79;1722575;81;21494;-73
2022/07/25 04:05:50;;;;;;;5.80;4.80;;;;;;;19.66;77.98;99472.00;1733131;80;21564;-73
2022/07/25 04:08:17;;;;;;;6.22;4.62;;;;;;;19.74;77.95;99485.60;1732062;80;21555;-73
2022/07/25 04:10:46;;;;;;;8.43;4.75;;;;;;;19.77;76.88;99476.48;1727362;80;20981;-74
2022/07/25 04:13:12;;;;;;;4.70;4.25;;;;;;;19.70;76.42;99475.27;1731660;80;21567;-71
2022/07/25 04:15:39;;;;;;;6.62;3.90;;;;;;;19.64;76.21;99476.63;1728958;80;21472;-71
2022/07/25 04:18:07;;;;;;;;;;;;;;;19.65;75.90;99479.66;1731275;81;20980;-71
2022/07/25 04:20:36;;;;;;;4.40;3.72;;;;;;;19.67;75.98;99483.05;1733661;81;20422;-69
2022/07/25 04:23:03;;;;;;;4.40;3.52;;;;;;;19.67;75.66;99478.21;1735785;80;21805;-69
2022/07/25 04:25:29;;;;;;;5.53;3.90;;;;;;;19.70;75.85;99475.27;1727939;80;21414;-70
2022/07/25 04:27:56;;;;;;;4.10;3.70;;;;;;;19.76;75.76;99472.98;1731741;80;21424;-70
2022/07/25 04:30:23;;;;;;;4.12;3.45;;;;;;;19.87;75.38;99473.88;1743926;80;21067;-69
2022/07/25 04:32:50;;;;;;;7.17;4.22;;;;;;;19.97;75.14;99467.66;1737162;80;21446;-72
2022/07/25 04:35:16;;;;;;;5.20;3.85;;;;;;;20.01;74.69;99457.56;1729966;80;21826;-72
2022/07/25 04:37:43;;;;;;;8.38;4.08;;;;;;;20.00;74.05;99466.53;1728767;80;21424;-73
2022/07/25 04:40:11;;;;;;;7.30;4.05;;;;;;;20.02;73.77;99468.11;1742914;80;21396;-71
2022/07/25 04:42:37;;;;;;;4.40;3.75;;;;;;;20.06;73.47;99463.83;1734509;80;21458;-68
2022/07/25 04:45:05;;;;;;;5.35;4.12;;;;;;;20.02;73.77;99465.91;1722120;80;21599;-69
2022/07/25 04:47:31;;;;;;;5.65;4.17;;;;;;;20.02;73.76;99470.78;1733981;80;21844;-68
2022/07/25 04:49:58;;;;;;;4.90;4.00;;;;;;;20.05;73.52;99463.49;1694267;82;21444;-67
2022/07/25 04:52:26;;;;;;;4.05;3.72;;;;;;;20.10;73.19;99471.93;1686442;82;21571;-68
2022/07/25 04:54:52;;;;;;;9.47;4.10;;;;;;;20.14;73.45;99474.72;1694397;83;21563;-66
2022/07/25 04:57:20;;;;;;;4.90;3.67;;;;;;;20.21;73.66;99481.20;1688526;83;21655;-67
2022/07/25 04:59:46;;;;;;;3.87;3.47;;;;;;;20.31;73.76;99487.95;1684899;83;21516;-68
2022/07/25 05:02:14;;;;;;;7.85;4.30;;;;;;;20.42;73.65;99485.21;1688486;83;21488;-68
2022/07/25 05:04:40;;;;;;;7.53;4.47;;;;;;;20.53;72.79;99483.79;1686482;82;21465;-68
2022/07/25 05:07:07;;;;;;;5.45;3.85;;;;;;;20.55;71.53;99471.61;1704139;83;21044;-68
2022/07/25 05:09:35;;;;;;;4.92;4.37;;;;;;;20.55;71.53;99471.61;1695595;82;21058;-65
2022/07/25 05:12:03;;;;;;;4.83;4.25;;;;;;;20.50;71.90;99475.20;1688179;82;21876;-67
2022/07/25 05:14:29;;;;;;;5.83;3.72;;;;;;;20.50;71.54;99477.86;1690963;83;21606;-68
2022/07/25 05:16:56;;;;;;;5.37;4.30;;;;;;;20.54;71.36;99477.45;1694139;83;21406;-68
2022/07/25 05:19:23;;;;;;;8.50;4.22;;;;;;;20.65;71.15;99475.72;1691152;82;21497;-68
2022/07/25 05:21:51;;;;;;;7.80;4.42;;;;;;;20.65;71.15;99475.72;1686001;82;21604;-68
2022/07/25 05:24:18;;;;;;;5.95;4.42;;;;;;;20.69;71.50;99483.31;1733794;80;25585;-68
2022/07/25 05:26:45;;;;;;;7.70;4.00;;;;;;;20.76;71.08;99479.62;1739250;81;21403;-68
2022/07/25 05:29:11;;;;;;;5.20;4.17;;;;;;;20.85;71.66;99481.50;1736794;80;21499;-67
2022/07/25 05:31:38;;;;;;;7.17;4.22;;;;;;;20.85;71.66;99481.50;1735704;80;21550;-68
2022/07/25 05:34:04;;;;;;;4.85;4.42;;;;;;;20.91;70.55;99486.28;1749876;80;21515;-67
2022/07/25 05:36:33;;;;;;;5.75;4.53;;;;;;;20.95;70.60;99485.03;1749130;80;20992;-67
2022/07/25 05:39:00;;;;;;;4.42;4.00;;;;;;;20.90;69.30;99477.90;1739645;80;21436;-66
2022/07/25 05:41:27;;;;;;;9.85;4.45;;;;;;;20.93;70.04;99478.98;1736444;80;20982;-67
2022/07/25 05:43:53;;;;;;;4.33;3.92;;;;;;;20.98;69.96;99482.09;1710172;82;21502;-67
2022/07/25 05:46:20;;;;;;;4.50;4.10;;;;;;;21.08;70.14;99475.90;1709987;82;21565;-68
2022/07/25 05:48:46;;;;;;;6.85;4.60;;;;;;;21.23;70.09;99480.37;1694356;83;21803;-67
2022/07/25 05:51:13;;;;;;;5.87;4.60;;;;;;;21.32;69.21;99463.50;1696935;82;21420;-69
2022/07/25 05:53:40;;;;;;;9.20;4.78;;;;;;;21.43;69.09;99469.22;1680276;83;21547;-68
2022/07/25 05:56:09;;;;;;;5.90;4.75;;;;;;;21.69;69.22;99461.02;1693979;82;21467;-68
2022/07/25 05:58:39;;;;;;;6.40;4.17;;;;;;;21.69;69.22;99461.02;1702065;82;21572;-67
2022/07/25 06:01:04;;;;;;;6.78;4.35;;;;;;;22.00;67.77;99457.33;1689536;82;22324;-64
2022/07/25 06:03:32;;;;;;;5.87;4.00;;;;;;;22.00;67.77;99457.33;1695600;82;21599;-65
2022/07/25 06:05:59;;;;;;;5.70;4.28;;;;;;;22.04;67.02;99452.89;1695560;82;21523;-64
2022/07/25 06:08:29;;;;;;;4.87;4.20;;;;;;;22.01;66.02;99442.97;1677616;83;21036;-63
2022/07/25 06:10:55;;;;;;;7.42;4.20;;;;;;;21.96;66.35;99446.05;1727964;80;21680;-65
2022/07/25 06:13:22;;;;;;;8.90;4.35;;;;;;;22.03;66.57;99437.80;1701175;82;21890;-65
2022/07/25 06:15:49;;;;;;;9.38;5.42;;;;;;;22.10;66.43;99434.91;1697128;83;21463;-64
2022/07/25 06:18:15;;;;;;;5.90;4.85;;;;;;;22.10;65.26;99433.57;1697939;83;21013;-64
2022/07/25 06:20:42;;;;;;;5.53;4.72;;;;;;;22.06;66.09;99434.86;1702689;82;21556;-64
2022/07/25 06:23:10;;;;;;;8.45;4.85;;;;;;;22.13;66.07;99433.77;1698335;82;21471;-65
2022/07/25 06:25:36;;;;;;;6.15;4.40;;;;;;;22.25;66.26;99434.45;1698856;82;21802;-65
2022/07/25 06:28:04;;;;;;;6.62;4.25;;;;;;;22.34;65.94;99437.13;1736634;80;21547;-66
2022/07/25 06:30:31;;;;;;;4.92;4.42;;;;;;;22.34;64.91;99428.27;1752454;79;21579;-64
2022/07/25 06:32:57;;;;;;;4.83;4.43;;;;;;;22.40;65.18;99430.84;1696673;82;21645;-65
2022/07/25 06:35:24;;;;;;;5.92;4.35;;;;;;;22.35;64.30;99428.59;1696682;83;21529;-63
2022/07/25 06:37:50;;;;;;;7.00;4.62;;;;;;;22.35;64.30;99428.59;1697310;82;21804;-64
2022/07/25 06:40:17;;;;;;;5.97;4.40;;;;;;;22.36;65.21;99431.63;1687514;83;21637;-67
2022/07/25 06:42:45;;;;;;;4.80;3.98;;;;;;;22.44;64.95;99423.70;1695180;82;21574;-71
2022/07/25 06:45:13;;;;;;;5.45;4.42;;;;;;;22.60;65.41;99425.73;1693242;82;21656;-69
2022/07/25 06:47:41;;;;;;;5.60;4.97;;;;;;;22.77;65.36;99420.58;1681889;83;21420;-67
2022/07/25 06:50:13;;;;;;;6.03;4.37;;;;;;;22.92;64.21;99420.41;1691459;83;21809;-68
2022/07/25 06:52:40;;;;;;;6.25;4.45;;;;;;;23.06;63.87;99414.58;1690553;82;21485;-70
2022/07/25 06:55:08;;;;;;;4.70;4.30;;;;;;;23.19;62.78;99412.01;1688889;82;21590;-69
2022/07/25 06:57:35;;;;;;;8.75;4.22;;;;;;;23.25;63.03;99411.42;1695521;82;21551;-70
2022/07/25 07:00:06;;;;;;;4.53;4.17;;;;;;;23.41;62.66;99416.08;1688524;82;21524;-70
2022/07/25 07:02:33;;;;;;;8.08;4.37;;;;;;;23.54;61.74;99405.80;1697998;82;21931;-70
2022/07/25 07:04:59;;;;;;;5.20;4.30;;;;;;;23.64;62.03;99406.58;1691418;83;21553;-73
2022/07/25 07:07:26;;;;;;;5.20;4.70;;;;;;;23.76;61.24;99399.11;1686136;83;21488;-69
2022/07/25 07:09:53;;;;;;;5.12;4.20;;;;;;;23.88;61.54;99406.44;1684485;83;21553;-69
2022/07/25 07:12:21;;;;;;;7.92;4.50;;;;;;;24.02;61.32;99405.87;1692237;83;21552;-71
2022/07/25 07:14:48;;;;;;;7.47;4.20;;;;;;;24.22;60.58;99415.04;1684135;83;21913;-70
2022/07/25 07:17:15;;;;;;;4.45;4.05;;;;;;;24.36;59.33;99410.94;1690448;83;20985;-68
2022/07/25 07:19:44;;;;;;;8.55;4.95;;;;;;;24.42;57.86;99393.66;1678730;83;21531;-71
2022/07/25 07:22:11;;;;;;;7.95;4.45;;;;;;;24.51;58.14;99399.92;1694277;83;20960;-72
2022/07/25 07:24:37;;;;;;;7.97;4.08;;;;;;;24.49;57.69;99399.24;1681738;83;21543;-69
2022/07/25 07:27:04;;;;;;;8.03;4.30;;;;;;;24.43;57.12;99397.18;1682834;83;21877;-72
2022/07/25 07:29:31;;;;;;;7.45;4.33;;;;;;;24.35;56.76;99396.64;1685353;83;21615;-71
2022/07/25 07:31:58;;;;;;;5.78;3.98;;;;;;;24.29;56.94;99393.27;1680841;83;20975;-71
2022/07/25 07:34:25;;;;;;;4.73;4.20;;;;;;;24.28;57.35;99388.91;1679774;83;21377;-69
2022/07/25 07:36:52;;;;;;;4.95;4.28;;;;;;;24.25;56.60;99390.56;1661984;84;21638;-69
2022/07/25 07:39:18;;;;;;;5.58;4.72;;;;;;;24.24;56.98;99389.73;1684667;83;22227;-69
2022/07/25 07:41:44;;;;;;;4.65;4.20;;;;;;;24.25;56.78;99401.30;1678953;83;21528;-68
2022/07/25 07:44:11;;;;;;;4.75;4.00;;;;;;;24.24;56.47;99391.55;1690727;83;21544;-68
2022/07/25 07:46:38;;;;;;;5.35;3.70;;;;;;;24.20;56.34;99392.36;1737090;80;21527;-67
2022/07/25 07:49:06;;;;;;;4.72;3.70;;;;;;;24.25;56.38;99394.59;1731462;80;21436;-67
2022/07/25 07:51:34;;;;;;;6.00;3.77;;;;;;;24.28;56.13;99392.42;1728059;80;21772;-68
2022/07/25 07:56:46;;;;;;;4.80;3.35;;;;;;;24.26;55.82;99397.59;1732811;80;21507;-66
2022/07/25 07:59:13;;;;;;;4.30;3.67;;;;;;;24.32;55.93;99397.45;1725421;81;21543;-70
2022/07/25 08:01:40;;;;;;;4.67;3.70;;;;;;;24.46;56.08;99393.67;1729050;80;21487;-68
2022/07/25 08:04:07;;;;;;;5.93;3.90;;;;;;;24.55;55.06;99392.41;1746609;80;21969;-68
2022/07/25 08:06:34;;;;;;;5.20;4.22;;;;;;;24.51;54.30;99388.34;1740447;79;21036;-68
2022/07/25 08:09:01;;;;;;;6.08;3.45;;;;;;;24.59;55.01;99393.26;1743676;80;21574;-68
2022/07/25 08:11:27;;;;;;;4.55;4.08;;;;;;;24.79;54.00;99383.57;1733723;80;21582;-69
2022/07/25 08:13:54;;;;;;;5.87;3.90;;;;;;;25.06;54.15;99377.09;1748466;80;21582;-69
2022/07/25 08:16:22;;;;;;;6.65;4.00;;;;;;;25.38;53.56;99368.76;1738192;80;21800;-68
2022/07/25 08:18:48;;;;;;;3.80;3.50;;;;;;;25.63;52.34;99366.89;1731669;80;21492;-70
2022/07/25 08:21:16;;;;;;;4.75;3.33;;;;;;;25.85;51.07;99376.13;1746717;80;21487;-69
2022/07/25 08:23:45;;;;;;;6.80;3.45;;;;;;;25.80;50.72;99365.85;1744140;80;21480;-69
2022/07/25 08:26:13;;;;;;;6.92;3.50;;;;;;;25.74;50.58;99367.89;1739435;80;21565;-69
2022/07/25 08:28:40;;;;;;;4.20;3.20;;;;;;;25.54;49.84;99362.03;1739288;80;22017;-69
2022/07/25 08:31:07;;;;;;;4.08;3.40;;;;;;;25.33;50.62;99371.09;1739113;80;20990;-69
2022/07/25 08:33:34;;;;;;;;;;;;;;;25.23;50.82;99380.69;1745647;80;21440;-71
2022/07/25 08:36:01;;;;;;;5.15;2.90;;;;;;;25.36;51.40;99378.34;1743280;80;20458;-69
2022/07/25 08:38:28;;;;;;;3.35;3.05;;;;;;;25.40;50.35;99376.16;1740026;80;21506;-69
2022/07/25 08:40:56;;;;;;;3.27;2.97;;;;;;;25.42;50.66;99383.55;1739173;80;21997;-70
2022/07/25 08:43:22;;;;;;;8.85;4.15;;;;;;;25.44;51.02;99374.80;1738316;80;21493;-70
2022/07/25 08:45:51;;;;;;;8.75;3.25;;;;;;;25.48;50.99;99378.00;1739653;80;21109;-72
2022/07/25 08:48:21;;;;;;;3.10;2.90;;;;;;;25.53;51.33;99379.70;1733843;80;21039;-72
2022/07/25 08:50:48;;;;;;;4.60;3.30;;;;;;;25.59;51.76;99380.36;1736502;80;21593;-70
2022/07/25 08:53:18;;;;;;;3.95;3.05;;;;;;;25.65;50.92;99386.41;1743698;80;21410;-71
2022/07/25 08:55:46;;;;;;;5.00;3.08;;;;;;;25.66;50.42;99372.45;1696329;82;21617;-69
2022/07/25 08:58:14;;;;;;;5.08;3.40;;;;;;;25.70;50.88;99369.76;1741716;80;21507;-69
2022/07/25 09:00:41;;;;;;;5.28;2.83;;;;;;;25.83;50.97;99373.59;1698658;82;21529;-68
2022/07/25 09:03:09;;;;;;;3.37;3.08;;;;;;;25.94;50.50;99368.41;1735967;80;21512;-67
2022/07/25 09:05:36;;;;;;;3.52;3.22;;;;;;;26.05;48.47;99364.52;1743894;80;21964;-70
2022/07/25 09:08:16;;;;;;;7.33;2.80;;;;;;;26.15;48.99;99367.01;1691051;82;21443;-69
2022/07/25 09:10:50;;;;;;;5.30;3.40;;;;;;;26.27;48.88;99365.61;1659475;83;21541;-69
2022/07/25 09:13:19;;;;;;;3.02;2.80;;;;;;;26.37;48.79;99354.13;1696814;82;20962;-69
2022/07/25 09:15:49;;;;;;;3.45;3.15;;;;;;;26.47;47.74;99351.73;1695946;83;21570;-69
2022/07/25 09:18:18;;;;;;;5.67;3.45;;;;;;;26.48;47.47;99348.01;1739013;80;21871;-70
2022/07/25 09:21:00;;;;;;;4.47;3.72;;;;;;;26.40;47.60;99351.58;1725856;80;21495;-69
2022/07/25 09:23:33;;;;;;;4.55;2.92;;;;;;;26.32;46.39;99353.80;1698936;82;22488;-70
2022/07/25 09:26:11;;;;;;;4.22;3.30;;;;;;;26.37;46.41;99342.48;1691950;82;21542;-68
2022/07/25 09:28:43;;;;;;;6.42;3.27;;;;;;;26.56;46.46;99346.61;1686342;82;21597;-70
2022/07/25 09:31:11;;;;;;;4.20;3.40;;;;;;;26.83;46.68;99345.85;1721727;82;22138;-70
2022/07/25 09:33:55;;;;;;;3.80;3.33;;;;;;;27.00;45.98;99348.25;1688139;83;21435;-72
2022/07/25 09:36:22;;;;;;;3.47;2.80;;;;;;;27.03;46.28;99344.86;1733060;80;21579;-73
2022/07/25 09:38:56;;;;;;;5.28;3.25;;;;;;;26.89;46.08;99338.38;1737078;80;20963;-69
2022/07/25 09:41:39;;;;;;;4.95;3.02;;;;;;;26.72;46.68;99341.17;1745475;80;21497;-71
2022/07/25 09:44:17;;;;;;;3.45;3.15;;;;;;;26.53;46.97;99342.42;1740561;80;21410;-69
2022/07/25 09:46:44;;;;;;;3.02;2.80;;;;;;;26.39;46.77;99346.70;1741283;80;21498;-69
2022/07/25 09:49:15;;;;;;;4.53;3.35;;;;;;;26.29;46.64;99342.53;1734748;80;21508;-69
2022/07/25 09:51:42;;;;;;;3.25;2.90;;;;;;;26.30;46.92;99349.62;1737898;80;21596;-68
2022/07/25 09:54:11;;;;;;;6.35;2.72;;;;;;;26.44;46.74;99342.64;1736965;80;21617;-71
2022/07/25 09:56:38;;;;;;;3.10;2.70;;;;;;;26.60;46.97;99344.78;1737473;80;22200;-68
2022/07/25 09:59:05;;;;;;;3.08;2.52;;;;;;;26.70;47.80;99345.08;1733600;80;21526;-71
2022/07/25 10:01:44;;;;;;;5.25;2.85;;;;;;;26.86;46.33;99342.77;1740554;81;21584;-72
2022/07/25 10:04:21;;;;;;;8.33;3.20;;;;;;;26.94;45.96;99338.70;1731050;80;21535;-74
2022/07/25 10:06:53;;;;;;;4.55;3.22;;;;;;;27.02;45.46;99333.75;1711180;82;21421;-72
2022/07/25 10:09:20;;;;;;;3.12;2.77;;;;;;;27.14;45.30;99339.05;1729181;80;21772;-76
2022/07/25 10:12:08;;;;;;;3.65;3.05;;;;;;;27.30;44.92;99330.03;1720065;80;21399;-75
2022/07/25 10:14:35;;;;;;;6.87;3.52;;;;;;;27.48;44.93;99329.69;1689524;82;21565;-74
2022/07/25 10:17:03;;;;;;;3.77;2.70;;;;;;;27.55;44.59;99331.98;1733989;80;21432;-74
2022/07/25 10:19:46;;;;;;;7.95;2.80;;;;;;;27.55;43.83;99326.07;1733223;80;21507;-74
2022/07/25 10:22:14;;;;;;;2.83;2.52;;;;;;;27.40;43.23;99331.13;1727892;79;21753;-75
2022/07/25 10:24:50;;;;;;;4.63;2.63;;;;;;;27.28;43.81;99331.55;1738779;80;21083;-74
2022/07/25 10:27:22;;;;;;;4.60;2.77;;;;;;;27.27;43.87;99332.56;1727367;80;21483;-74
2022/07/25 10:29:53;;;;;;;5.43;3.07;;;;;;;27.27;44.03;99335.77;1734547;80;21558;-74
2022/07/25 10:32:24;;;;;;;4.08;3.00;;;;;;;27.24;43.60;99329.34;1735630;80;21088;-73
2022/07/25 10:34:52;;;;;;;3.35;3.10;;;;;;;27.25;43.69;99325.64;1733377;80;21504;-74
2022/07/25 10:37:20;;;;;;;4.87;3.35;;;;;;;27.17;43.79;99321.98;1736266;80;21627;-72
2022/07/25 10:39:48;;;;;;;5.65;3.20;;;;;;;27.18;43.58;99326.86;1728241;80;20984;-73
2022/07/25 10:42:21;;;;;;;7.42;3.77;;;;;;;27.26;43.86;99320.63;1734426;80;21050;-70
2022/07/25 10:44:52;;;;;;;5.60;3.25;;;;;;;27.37;43.20;99316.14;1738716;80;21420;-71
2022/07/25 10:47:22;;;;;;;4.17;3.35;;;;;;;27.54;43.28;99323.06;1733151;80;21934;-72
2022/07/25 10:49:56;;;;;;;6.12;3.75;;;;;;;27.72;43.27;99312.41;1748565;80;20989;-70
2022/07/25 10:52:28;;;;;;;4.78;3.47;;;;;;;27.94;42.78;99315.59;1735989;80;21569;-70
2022/07/25 10:54:59;;;;;;;4.75;3.00;;;;;;;28.08;41.22;99315.77;1739489;80;21518;-70
2022/07/25 10:57:27;;;;;;;3.47;2.45;;;;;;;28.19;41.36;99318.00;1737538;80;21480;-72
2022/07/25 10:59:55;;;;;;;4.10;2.60;;;;;;;28.24;41.12;99315.58;1731881;80;21841;-71
2022/07/25 11:02:23;;;;;;;2.70;2.50;;;;;;;28.28;41.33;99315.52;1729810;81;21575;-72
2022/07/25 11:05:01;;;;;;;4.30;2.90;;;;;;;28.20;40.43;99325.58;1731184;80;21015;-73
2022/07/25 11:07:34;;;;;;;2.98;2.70;;;;;;;28.04;41.07;99325.28;1731249;80;21565;-74
2022/07/25 11:10:01;;;;;;;4.47;2.98;;;;;;;27.82;41.33;99321.59;1733636;80;21468;-74
2022/07/25 11:12:30;;;;;;;3.85;2.67;;;;;;;27.65;40.64;99318.22;1726660;80;21430;-73
2022/07/25 11:15:03;;;;;;;3.40;3.10;;;;;;;27.45;41.74;99320.11;1729612;80;21510;-73
2022/07/25 11:17:31;;;;;;;6.28;2.75;;;;;;;27.41;41.80;99320.64;1748569;80;21479;-74
2022/07/25 11:20:05;;;;;;;4.67;3.15;;;;;;;27.38;41.52;99328.08;1728845;80;21495;-74
2022/07/25 11:22:33;;;;;;;3.92;2.83;;;;;;;27.35;41.37;99327.59;1732829;80;21596;-71
2022/07/25 11:25:00;;;;;;;4.30;3.05;;;;;;;27.33;41.66;99320.20;1740568;80;22040;-72
2022/07/25 11:27:30;;;;;;;;;;;;;;;27.38;41.85;99324.03;1738089;80;21581;-72
2022/07/25 11:30:15;;;;;;;4.00;3.17;;;;;;;27.45;41.80;99327.38;1730020;80;20429;-70
2022/07/25 11:32:48;;;;;;;3.70;3.35;;;;;;;27.52;41.54;99325.11;1726445;80;21046;-72
2022/07/25 11:35:15;;;;;;;4.72;3.98;;;;;;;27.60;41.77;99315.26;1735778;80;21440;-72
2022/07/25 11:37:47;;;;;;;6.37;3.75;;;;;;;27.67;41.23;99312.98;1732776;80;21829;-71
2022/07/25 11:40:15;;;;;;;4.10;3.45;;;;;;;27.75;41.33;99309.36;1691914;82;21570;-71
2022/07/25 11:42:47;;;;;;;4.58;3.58;;;;;;;27.83;41.30;99309.78;1725893;80;21586;-71
2022/07/25 11:45:27;;;;;;;4.15;3.37;;;;;;;27.91;41.21;99308.36;1729624;80;21545;-73